createdAt,value
2023-01-19T00:00:40.401Z,72.93
2023-01-19T00:03:25.845Z,72.98
2023-01-19T00:06:11.994Z,72.71
2023-01-19T00:08:57.133Z,72.70
2023-01-19T00:11:42.368Z,72.38
2023-01-19T00:14:27.502Z,72.58
2023-01-19T00:17:13.003Z,72.34
2023-01-19T00:19:58.157Z,71.98
2023-01-19T00:22:43.455Z,72.69
2023-01-19T00:25:29.185Z,72.70
2023-01-19T00:28:16.935Z,73.45
2023-01-19T00:31:05.195Z,72.52
2023-01-19T00:33:52.439Z,72.66
2023-01-19T00:36:37.846Z,72.48
2023-01-19T00:39:23.228Z,72.58
2023-01-19T00:42:31.043Z,72.68
2023-01-19T00:45:23.561Z,72.43
2023-01-19T00:48:09.077Z,72.51
2023-01-19T00:50:54.289Z,72.72
2023-01-19T00:53:40.064Z,72.57
2023-01-19T00:56:25.504Z,72.30
2023-01-19T00:59:14.546Z,72.09
2023-01-19T01:02:00.031Z,71.95
2023-01-19T01:04:54.797Z,72.41
2023-01-19T01:07:43.551Z,72.19
2023-01-19T01:10:29.960Z,72.34
2023-01-19T01:13:25.414Z,72.64
2023-01-19T01:16:15.226Z,72.60
2023-01-19T01:19:00.658Z,72.25
2023-01-19T01:21:45.842Z,72.23
2023-01-19T01:24:32.049Z,72.31
2023-01-19T01:27:17.308Z,72.63
2023-01-19T01:30:02.737Z,72.49
2023-01-19T01:32:47.766Z,72.65
2023-01-19T01:35:33.873Z,72.81
2023-01-19T01:38:19.047Z,73.80
2023-01-19T01:41:04.805Z,73.77
2023-01-19T01:43:58.447Z,74.26
2023-01-19T01:46:43.542Z,73.86
2023-01-19T01:49:30.387Z,73.80
2023-01-19T01:52:17.099Z,74.20
2023-01-19T01:55:06.847Z,73.86
2023-01-19T01:57:57.380Z,74.21
2023-01-19T02:01:02.037Z,73.71
2023-01-19T02:03:47.558Z,74.09
2023-01-19T02:06:34.539Z,74.26
2023-01-19T02:09:38.672Z,74.26
2023-01-19T02:12:43.276Z,74.13
2023-01-19T02:15:28.402Z,74.33
2023-01-19T02:18:14.118Z,74.56
2023-01-19T02:21:18.887Z,74.42
2023-01-19T02:24:04.596Z,74.49
2023-01-19T02:26:51.032Z,73.83
2023-01-19T02:29:36.383Z,74.20
2023-01-19T02:32:21.582Z,74.17
2023-01-19T02:35:07.345Z,74.09
2023-01-19T02:37:53.470Z,73.79
2023-01-19T02:40:41.800Z,73.90
2023-01-19T02:43:30.071Z,73.70
2023-01-19T02:46:16.043Z,73.28
2023-01-19T02:49:01.737Z,73.40
2023-01-19T02:51:47.156Z,73.84
2023-01-19T02:55:09.899Z,73.72
2023-01-19T02:58:36.993Z,73.41
2023-01-19T03:01:47.878Z,74.03
2023-01-19T03:04:57.847Z,74.16
2023-01-19T03:08:02.312Z,74.42
2023-01-19T03:10:53.911Z,74.48
2023-01-19T03:14:01.972Z,75.06
2023-01-19T03:16:55.932Z,74.90
2023-01-19T03:19:43.542Z,75.17
2023-01-19T03:22:29.906Z,74.61
2023-01-19T03:25:17.641Z,74.77
2023-01-19T03:28:04.202Z,74.43
2023-01-19T03:30:56.240Z,74.39
2023-01-19T03:33:46.728Z,74.58
2023-01-19T03:36:40.455Z,74.52
2023-01-19T03:39:27.690Z,74.78
2023-01-19T03:42:16.452Z,75.03
2023-01-19T03:45:02.174Z,74.69
2023-01-19T03:47:48.570Z,74.81
2023-01-19T03:50:33.913Z,74.92
2023-01-19T03:53:21.833Z,74.81
2023-01-19T03:56:23.772Z,74.96
2023-01-19T03:59:09.205Z,75.04
2023-01-19T04:01:56.906Z,74.49
2023-01-19T04:04:46.228Z,74.48
2023-01-19T04:07:32.037Z,74.55
2023-01-19T04:10:18.336Z,74.78
2023-01-19T04:13:04.732Z,74.86
2023-01-19T04:15:50.151Z,75.10
2023-01-19T04:18:35.875Z,75.04
2023-01-19T04:21:21.117Z,75.31
2023-01-19T04:24:06.954Z,75.59
2023-01-19T04:26:53.464Z,75.16
2023-01-19T04:29:38.895Z,75.12
2023-01-19T04:32:24.414Z,75.30
2023-01-19T04:35:09.955Z,75.42
2023-01-19T04:37:55.046Z,75.35
2023-01-19T04:40:40.557Z,75.71
2023-01-19T04:43:25.724Z,75.45
2023-01-19T04:46:10.932Z,75.80
2023-01-19T04:48:56.487Z,75.61
2023-01-19T04:51:41.958Z,75.96
2023-01-19T04:54:27.608Z,76.29
2023-01-19T04:57:13.074Z,76.22
2023-01-19T04:59:58.539Z,76.54
2023-01-19T05:02:45.238Z,76.45
2023-01-19T05:05:30.549Z,76.06
2023-01-19T05:08:15.864Z,75.80
2023-01-19T05:11:01.279Z,75.52
2023-01-19T05:13:46.552Z,76.14
2023-01-19T05:16:31.817Z,75.99
2023-01-19T05:19:17.190Z,75.68
2023-01-19T05:22:04.340Z,75.57
2023-01-19T05:24:49.901Z,75.53
2023-01-19T05:27:36.350Z,75.72
2023-01-19T05:30:21.634Z,75.71
2023-01-19T05:33:06.709Z,75.54
2023-01-19T05:35:53.376Z,75.07
2023-01-19T05:38:38.400Z,75.37
2023-01-19T05:41:23.980Z,75.46
2023-01-19T05:44:09.820Z,75.57
2023-01-19T05:46:55.362Z,75.71
2023-01-19T05:49:40.794Z,76.06
2023-01-19T05:52:25.898Z,75.65
2023-01-19T05:55:11.104Z,75.62
2023-01-19T05:57:56.454Z,75.29
2023-01-19T06:00:41.598Z,75.85
2023-01-19T06:03:26.955Z,75.24
2023-01-19T06:06:14.874Z,74.83
2023-01-19T06:09:00.332Z,75.15
2023-01-19T06:11:46.084Z,75.22
2023-01-19T06:14:32.411Z,75.64
2023-01-19T06:17:18.211Z,75.27
2023-01-19T06:20:05.324Z,75.55
2023-01-19T06:22:50.470Z,75.42
2023-01-19T06:25:35.971Z,75.20
2023-01-19T06:28:22.159Z,75.77
2023-01-19T06:31:07.546Z,75.47
2023-01-19T06:33:52.901Z,76.01
2023-01-19T06:36:38.669Z,75.58
2023-01-19T06:39:24.522Z,74.88
2023-01-19T06:42:09.839Z,74.81
2023-01-19T06:44:55.256Z,74.98
2023-01-19T06:47:40.734Z,74.77
2023-01-19T06:50:26.606Z,74.41
2023-01-19T06:53:12.630Z,74.83
2023-01-19T06:56:00.925Z,74.59
2023-01-19T06:58:50.437Z,74.96
2023-01-19T07:01:36.158Z,74.67
2023-01-19T07:04:22.230Z,74.51
2023-01-19T07:07:07.765Z,74.83
2023-01-19T07:09:54.047Z,74.79
2023-01-19T07:12:39.581Z,74.55
2023-01-19T07:15:24.761Z,74.14
2023-01-19T07:18:10.357Z,74.41
2023-01-19T07:20:57.657Z,74.79
2023-01-19T07:23:43.387Z,74.72
2023-01-19T07:26:29.029Z,74.61
2023-01-19T07:29:14.527Z,74.92
2023-01-19T07:32:00.047Z,73.99
2023-01-19T07:34:45.394Z,73.74
2023-01-19T07:37:30.687Z,73.98
2023-01-19T07:40:16.363Z,73.55
2023-01-19T07:43:02.040Z,72.65
2023-01-19T07:45:47.525Z,73.09
2023-01-19T07:48:32.826Z,73.06
2023-01-19T07:51:18.790Z,73.54
2023-01-19T07:54:04.293Z,73.46
2023-01-19T07:56:49.475Z,72.90
2023-01-19T07:59:34.963Z,72.43
2023-01-19T08:02:20.322Z,72.31
2023-01-19T08:05:06.043Z,72.12
2023-01-19T08:07:53.992Z,71.90
2023-01-19T08:10:39.280Z,71.71
2023-01-19T08:13:25.087Z,72.09
2023-01-19T08:16:10.781Z,71.94
2023-01-19T08:18:56.146Z,71.23
2023-01-19T08:21:41.377Z,71.11
2023-01-19T08:24:28.587Z,70.82
2023-01-19T08:27:13.974Z,70.85
2023-01-19T08:29:59.446Z,70.26
2023-01-19T08:32:44.617Z,70.64
2023-01-19T08:35:31.803Z,70.48
2023-01-19T08:38:17.528Z,69.87
2023-01-19T08:41:02.850Z,69.59
2023-01-19T08:43:49.315Z,69.84
2023-01-19T08:46:34.753Z,69.61
2023-01-19T08:49:20.628Z,69.30
2023-01-19T08:52:06.039Z,69.60
2023-01-19T08:54:51.761Z,69.15
2023-01-19T08:57:37.239Z,68.88
2023-01-19T09:00:22.903Z,68.76
2023-01-19T09:03:12.063Z,68.54
2023-01-19T09:05:57.417Z,68.85
2023-01-19T09:08:43.478Z,68.66
2023-01-19T09:11:28.836Z,68.90
2023-01-19T09:14:14.048Z,68.41
2023-01-19T09:16:59.250Z,68.22
2023-01-19T09:19:44.560Z,67.85
2023-01-19T09:22:29.797Z,67.58
2023-01-19T09:25:15.037Z,67.98
2023-01-19T09:28:00.844Z,67.43
2023-01-19T09:30:46.665Z,67.61
2023-01-19T09:33:35.793Z,67.36
2023-01-19T09:36:20.907Z,67.23
2023-01-19T09:39:06.285Z,64.05
2023-01-19T09:42:02.721Z,62.03
2023-01-19T09:44:50.415Z,60.89
2023-01-19T09:47:37.507Z,60.17
2023-01-19T09:50:34.312Z,62.12
2023-01-19T09:53:55.556Z,60.80
2023-01-19T09:56:42.364Z,58.50
2023-01-19T09:59:33.486Z,59.71
2023-01-19T10:02:33.243Z,60.11
2023-01-19T10:05:51.133Z,61.06
2023-01-19T10:09:09.174Z,61.92
2023-01-19T10:12:12.500Z,62.67
2023-01-19T10:15:19.413Z,62.75
2023-01-19T10:18:33.106Z,63.34
2023-01-19T10:21:26.392Z,62.67
2023-01-19T10:24:11.826Z,63.13
2023-01-19T10:26:57.449Z,62.89
2023-01-19T10:29:42.812Z,62.64
2023-01-19T10:32:32.819Z,62.97
2023-01-19T10:35:23.438Z,62.84
2023-01-19T10:38:14.475Z,62.43
2023-01-19T10:41:17.233Z,62.63
2023-01-19T10:44:05.311Z,62.29
2023-01-19T10:46:52.134Z,62.56
2023-01-19T10:49:40.443Z,62.27
2023-01-19T10:52:33.973Z,62.68
2023-01-19T10:55:40.490Z,70.71
2023-01-19T10:58:35.223Z,87.35
2023-01-19T11:01:28.290Z,100.00
2023-01-19T11:04:29.543Z,72.72
2023-01-19T11:07:28.744Z,64.05
2023-01-19T11:10:24.098Z,61.31
2023-01-19T11:13:15.777Z,59.43
2023-01-19T11:16:08.299Z,59.71
2023-01-19T11:18:55.906Z,59.95
2023-01-19T11:21:41.349Z,59.10
2023-01-19T11:24:27.039Z,57.64
2023-01-19T11:27:17.127Z,55.41
2023-01-19T11:30:10.375Z,56.54
2023-01-19T11:32:56.288Z,58.03
2023-01-19T11:35:42.237Z,58.71
2023-01-19T11:38:27.547Z,59.07
2023-01-19T11:41:23.419Z,59.09
2023-01-19T11:44:22.639Z,59.23
2023-01-19T11:47:18.955Z,59.66
2023-01-19T11:50:33.487Z,59.38
2023-01-19T11:53:24.307Z,59.61
2023-01-19T11:56:15.892Z,59.38
2023-01-19T11:59:09.549Z,59.55
2023-01-19T12:01:59.128Z,60.12
2023-01-19T12:04:46.717Z,59.38
2023-01-19T12:07:36.255Z,59.17
2023-01-19T12:10:27.357Z,59.78
2023-01-19T12:13:32.710Z,59.59
2023-01-19T12:16:21.785Z,60.01
2023-01-19T12:19:16.189Z,59.39
2023-01-19T12:22:03.998Z,60.15
2023-01-19T12:24:58.184Z,59.75
2023-01-19T12:27:45.519Z,59.31
2023-01-19T12:30:30.789Z,59.45
2023-01-19T12:33:21.952Z,59.53
2023-01-19T12:36:10.255Z,59.36
2023-01-19T12:38:56.812Z,59.83
2023-01-19T12:41:43.181Z,59.50
2023-01-19T12:44:31.057Z,59.19
2023-01-19T12:47:16.563Z,59.44
2023-01-19T12:50:07.352Z,59.47
2023-01-19T12:52:59.795Z,60.16
2023-01-19T12:55:46.740Z,60.48
2023-01-19T12:58:33.729Z,59.35
2023-01-19T13:01:21.528Z,59.42
2023-01-19T13:04:30.252Z,59.28
2023-01-19T13:07:18.014Z,59.17
2023-01-19T13:10:41.849Z,59.14
2023-01-19T13:14:04.422Z,59.74
2023-01-19T13:17:00.270Z,60.16
2023-01-19T13:19:51.255Z,60.56
2023-01-19T13:22:49.821Z,60.95
2023-01-19T13:25:36.182Z,61.22
2023-01-19T13:28:30.724Z,61.72
2023-01-19T13:31:17.140Z,62.54
2023-01-19T13:34:04.036Z,63.27
2023-01-19T13:36:52.796Z,63.64
2023-01-19T13:39:44.520Z,63.89
2023-01-19T13:42:37.937Z,64.48
2023-01-19T13:45:37.080Z,64.17
2023-01-19T13:48:24.653Z,65.26
2023-01-19T13:51:18.699Z,65.44
2023-01-19T13:54:05.642Z,65.52
2023-01-19T13:56:51.153Z,64.99
2023-01-19T13:59:36.727Z,65.70
2023-01-19T14:02:22.851Z,65.44
2023-01-19T14:05:20.604Z,65.64
2023-01-19T14:08:11.499Z,66.88
2023-01-19T14:10:56.567Z,66.80
2023-01-19T14:13:46.358Z,67.23
2023-01-19T14:16:31.964Z,68.08
2023-01-19T14:19:17.528Z,68.15
2023-01-19T14:22:04.519Z,68.58
2023-01-19T14:24:50.045Z,67.79
2023-01-19T14:27:35.370Z,68.33
2023-01-19T14:30:21.748Z,68.55
2023-01-19T14:33:32.501Z,68.89
2023-01-19T14:36:39.544Z,69.58
2023-01-19T14:39:28.729Z,69.35
2023-01-19T14:42:23.863Z,70.20
2023-01-19T14:45:15.717Z,70.27
2023-01-19T14:48:05.481Z,70.91
2023-01-19T14:51:03.752Z,70.69
2023-01-19T14:53:58.865Z,70.10
2023-01-19T14:56:44.416Z,69.99
2023-01-19T14:59:29.998Z,70.18
2023-01-19T15:02:18.405Z,70.12
2023-01-19T15:05:03.954Z,69.91
2023-01-19T15:07:49.108Z,70.49
2023-01-19T15:10:36.121Z,70.43
2023-01-19T15:13:23.709Z,70.44
2023-01-19T15:16:09.039Z,70.77
2023-01-19T15:18:54.604Z,70.14
2023-01-19T15:21:42.096Z,70.31
2023-01-19T15:24:27.369Z,70.34
2023-01-19T15:27:12.881Z,70.34
2023-01-19T15:29:59.664Z,70.34
2023-01-19T15:32:45.432Z,70.34
2023-01-19T15:35:31.082Z,70.40
2023-01-19T15:38:16.476Z,70.62
2023-01-19T15:41:01.636Z,70.58
2023-01-19T15:43:48.036Z,70.50
2023-01-19T15:46:33.499Z,70.67
2023-01-19T15:49:19.010Z,69.93
2023-01-19T15:52:04.395Z,70.01
2023-01-19T15:54:50.553Z,69.98
2023-01-19T15:57:35.918Z,70.06
2023-01-19T16:00:22.391Z,70.05
2023-01-19T16:03:08.231Z,70.30
2023-01-19T16:05:53.369Z,70.42
2023-01-19T16:08:39.172Z,70.57
2023-01-19T16:11:24.537Z,71.50
2023-01-19T16:14:10.352Z,70.99
2023-01-19T16:16:59.168Z,71.21
2023-01-19T16:19:44.801Z,71.48
2023-01-19T16:22:30.225Z,71.65
2023-01-19T16:25:15.617Z,71.39
2023-01-19T16:28:00.995Z,71.63
2023-01-19T16:30:46.418Z,71.65
2023-01-19T16:33:31.857Z,72.00
2023-01-19T16:36:23.031Z,71.85
2023-01-19T16:39:11.680Z,72.22
2023-01-19T16:41:56.875Z,71.30
2023-01-19T16:48:00.458Z,71.43
2023-01-19T16:50:57.903Z,71.19
2023-01-19T16:53:43.784Z,71.54
2023-01-19T16:56:29.152Z,71.27
2023-01-19T16:59:16.155Z,71.60
2023-01-19T17:02:02.659Z,71.49
2023-01-19T17:04:48.283Z,71.32
2023-01-19T17:07:33.309Z,71.73
2023-01-19T17:10:19.004Z,71.94
2023-01-19T17:13:04.399Z,71.78
2023-01-19T17:15:49.979Z,71.64
2023-01-19T17:18:37.883Z,71.66
2023-01-19T17:21:23.753Z,71.71
2023-01-19T17:24:12.436Z,71.48
2023-01-19T17:26:58.432Z,71.02
2023-01-19T17:29:43.808Z,71.03
2023-01-19T17:32:29.759Z,70.79
2023-01-19T17:35:15.154Z,70.57
2023-01-19T17:38:00.770Z,70.93
2023-01-19T17:40:46.534Z,70.71
2023-01-19T17:43:31.913Z,70.98
2023-01-19T17:46:19.107Z,70.95
2023-01-19T17:49:06.504Z,70.91
2023-01-19T17:51:53.670Z,70.90
2023-01-19T17:54:39.211Z,71.11
2023-01-19T17:57:24.761Z,70.79
2023-01-19T18:00:10.866Z,71.07
2023-01-19T18:02:58.956Z,70.60
2023-01-19T18:05:52.950Z,70.94
2023-01-19T18:08:40.020Z,70.50
2023-01-19T18:11:26.785Z,71.09
2023-01-19T18:14:11.924Z,70.66
2023-01-19T18:16:57.428Z,69.96
2023-01-19T18:19:43.029Z,69.97
2023-01-19T18:22:28.344Z,69.96
2023-01-19T18:25:13.540Z,70.14
2023-01-19T18:27:58.816Z,70.30
2023-01-19T18:30:44.159Z,70.33
2023-01-19T18:33:31.266Z,70.08
2023-01-19T18:36:17.857Z,70.23
2023-01-19T18:39:04.154Z,70.02
2023-01-19T18:41:49.928Z,70.63
2023-01-19T18:44:35.322Z,70.42
2023-01-19T18:47:20.395Z,70.11
2023-01-19T18:50:06.358Z,70.00
2023-01-19T18:52:52.728Z,70.42
2023-01-19T18:55:38.067Z,70.66
2023-01-19T18:58:24.240Z,70.37
2023-01-19T19:01:23.087Z,70.91
2023-01-19T19:04:14.194Z,71.20
2023-01-19T19:06:59.610Z,70.41
2023-01-19T19:09:44.911Z,70.90
2023-01-19T19:12:30.766Z,70.65
2023-01-19T19:15:16.687Z,70.93
2023-01-19T19:18:02.231Z,70.88
2023-01-19T19:20:47.419Z,71.04
2023-01-19T19:23:33.366Z,70.97
2023-01-19T19:26:18.579Z,71.10
2023-01-19T19:29:04.374Z,70.97
2023-01-19T19:31:49.620Z,70.53
2023-01-19T19:34:34.772Z,71.40
2023-01-19T19:37:20.045Z,71.12
2023-01-19T19:40:05.847Z,70.85
2023-01-19T19:42:55.842Z,70.95
2023-01-19T19:45:42.127Z,71.10
2023-01-19T19:48:28.285Z,71.32
2023-01-19T19:51:19.667Z,71.18
2023-01-19T19:54:04.941Z,71.37
2023-01-19T19:56:52.094Z,71.06
2023-01-19T19:59:37.571Z,70.33
2023-01-19T20:02:22.842Z,71.17
2023-01-19T20:05:08.406Z,70.50
2023-01-19T20:07:53.763Z,70.60
2023-01-19T20:10:39.205Z,70.92
2023-01-19T20:13:27.320Z,70.41
2023-01-19T20:16:15.403Z,70.83
2023-01-19T20:19:00.442Z,71.46
2023-01-19T20:21:45.752Z,71.00
2023-01-19T20:24:31.019Z,71.38
2023-01-19T20:27:16.212Z,70.92
2023-01-19T20:30:02.064Z,70.90
2023-01-19T20:32:47.301Z,70.59
2023-01-19T20:35:35.258Z,70.58
2023-01-19T20:38:20.663Z,70.93
2023-01-19T20:41:07.811Z,70.81
2023-01-19T20:43:53.074Z,71.36
2023-01-19T20:46:38.402Z,71.16
2023-01-19T20:49:32.883Z,71.09
2023-01-19T20:52:18.265Z,71.56
2023-01-19T20:55:03.620Z,71.57
2023-01-19T20:57:48.640Z,71.64
2023-01-19T21:00:34.583Z,71.48
2023-01-19T21:03:20.113Z,71.82
2023-01-19T21:06:05.846Z,72.13
2023-01-19T21:08:51.524Z,72.20
2023-01-19T21:11:38.819Z,71.62
2023-01-19T21:14:23.934Z,71.93
2023-01-19T21:17:09.421Z,72.17
2023-01-19T21:19:57.932Z,71.98
2023-01-19T21:22:43.229Z,72.14
2023-01-19T21:25:28.398Z,72.17
2023-01-19T21:28:17.808Z,72.47
2023-01-19T21:31:12.848Z,72.33
2023-01-19T21:33:58.527Z,73.13
2023-01-19T21:36:44.802Z,72.25
2023-01-19T21:39:30.442Z,72.68
2023-01-19T21:42:15.856Z,73.09
2023-01-19T21:45:01.115Z,72.89
2023-01-19T21:47:46.412Z,72.94
2023-01-19T21:50:31.859Z,72.96
2023-01-19T21:53:16.951Z,73.12
2023-01-19T21:56:02.258Z,73.58
2023-01-19T21:58:47.752Z,73.04
2023-01-19T22:01:34.060Z,73.27
2023-01-19T22:04:19.184Z,73.97
2023-01-19T22:07:05.080Z,73.74
2023-01-19T22:09:51.397Z,73.62
2023-01-19T22:12:39.353Z,73.09
2023-01-19T22:15:24.728Z,73.60
2023-01-19T22:18:10.787Z,73.54
2023-01-19T22:20:56.098Z,73.95
2023-01-19T22:23:42.263Z,74.51
2023-01-19T22:26:29.343Z,74.39
2023-01-19T22:29:14.664Z,74.59
2023-01-19T22:31:59.855Z,74.66
2023-01-19T22:34:45.126Z,75.09
2023-01-19T22:37:35.145Z,75.08
2023-01-19T22:40:20.210Z,74.91
2023-01-19T22:43:05.807Z,75.58
2023-01-19T22:45:50.880Z,75.55
2023-01-19T22:48:36.687Z,75.87
2023-01-19T22:51:23.696Z,75.83
2023-01-19T22:54:09.241Z,75.98
2023-01-19T22:56:54.806Z,76.21
2023-01-19T22:59:39.845Z,76.24
2023-01-19T23:02:25.295Z,76.36
2023-01-19T23:05:11.084Z,76.38
2023-01-19T23:07:56.601Z,76.43
2023-01-19T23:10:42.015Z,76.79
2023-01-19T23:13:27.556Z,76.71
2023-01-19T23:16:12.979Z,76.76
2023-01-19T23:18:58.796Z,77.03
2023-01-19T23:21:45.123Z,76.40
2023-01-19T23:24:30.735Z,76.88
2023-01-19T23:27:15.947Z,77.17
2023-01-19T23:30:01.185Z,77.06
2023-01-19T23:32:48.128Z,77.03
2023-01-19T23:35:35.106Z,76.99
2023-01-19T23:38:22.422Z,77.08
2023-01-19T23:41:08.607Z,76.52
2023-01-19T23:43:54.551Z,77.16
2023-01-19T23:46:40.113Z,77.16
2023-01-19T23:49:25.571Z,77.29
2023-01-19T23:52:10.760Z,77.93
2023-01-19T23:54:56.323Z,77.26
2023-01-19T23:57:41.769Z,77.73
